createdAt,value
2023-03-22T00:02:18.185Z,97864.59
2023-03-22T00:04:46.324Z,97864.53
2023-03-22T00:07:14.280Z,97861.28
2023-03-22T00:09:42.319Z,97856.66
2023-03-22T00:12:10.390Z,97854.47
2023-03-22T00:14:38.323Z,97858.22
2023-03-22T00:17:06.346Z,97861.44
2023-03-22T00:19:36.012Z,97848.22
2023-03-22T00:22:06.380Z,97851.72
2023-03-22T00:24:34.337Z,97844.69
2023-03-22T00:27:02.358Z,97844.13
2023-03-22T00:29:30.969Z,97832.56
2023-03-22T00:31:59.169Z,97828.25
2023-03-22T00:34:28.185Z,97831.19
2023-03-22T00:36:57.577Z,97827.13
2023-03-22T00:39:27.051Z,97827.88
2023-03-22T00:41:55.033Z,97837.19
2023-03-22T00:44:23.048Z,97829.88
2023-03-22T00:46:51.497Z,97824.44
2023-03-22T00:49:19.613Z,97824.13
2023-03-22T00:51:47.715Z,97822.25
2023-03-22T00:54:17.422Z,97821.44
2023-03-22T00:56:46.391Z,97820.88
2023-03-22T00:59:15.093Z,97820.31
2023-03-22T01:01:44.920Z,97818.69
2023-03-22T01:04:18.277Z,97812.75
2023-03-22T01:06:47.077Z,97812.69
2023-03-22T01:09:16.425Z,97807.81
2023-03-22T01:11:44.925Z,97806.44
2023-03-22T01:14:13.997Z,97806.44
2023-03-22T01:16:42.173Z,97802.94
2023-03-22T01:19:10.216Z,97808.31
2023-03-22T01:21:38.206Z,97800.50
2023-03-22T01:24:06.600Z,97799.16
2023-03-22T01:26:36.085Z,97799.66
2023-03-22T01:29:04.641Z,97796.41
2023-03-22T01:31:32.866Z,97786.16
2023-03-22T01:34:01.254Z,97785.34
2023-03-22T01:36:29.243Z,97779.91
2023-03-22T01:38:57.419Z,97781.22
2023-03-22T01:41:25.944Z,97780.56
2023-03-22T01:44:12.785Z,97784.25
2023-03-22T01:46:41.241Z,97786.31
2023-03-22T01:49:12.752Z,97787.28
2023-03-22T01:51:43.689Z,97769.00
2023-03-22T01:54:17.447Z,97767.63
2023-03-22T01:56:46.053Z,97775.09
2023-03-22T01:59:16.739Z,97769.97
2023-03-22T02:01:47.130Z,97761.28
2023-03-22T02:04:17.658Z,97766.66
2023-03-22T02:06:47.169Z,97769.91
2023-03-22T02:09:18.355Z,97770.16
2023-03-22T02:11:51.429Z,97760.97
2023-03-22T02:14:49.027Z,97758.78
2023-03-22T02:17:32.198Z,97769.19
2023-03-22T02:20:38.794Z,97764.88
2023-03-22T02:23:54.810Z,97756.00
2023-03-22T02:26:59.410Z,97750.84
2023-03-22T02:29:39.735Z,97747.28
2023-03-22T02:32:38.781Z,97741.09
2023-03-22T02:35:42.236Z,97748.31
2023-03-22T02:38:58.085Z,97743.19
2023-03-22T02:41:38.618Z,97744.50
2023-03-22T02:44:15.418Z,97744.19
2023-03-22T02:46:47.983Z,97742.81
2023-03-22T02:49:22.926Z,97748.16
2023-03-22T02:51:58.569Z,97744.34
2023-03-22T02:54:31.405Z,97747.28
2023-03-22T02:57:06.589Z,97739.72
2023-03-22T02:59:38.695Z,97736.72
2023-03-22T03:02:08.279Z,97736.63
2023-03-22T03:04:39.238Z,97737.84
2023-03-22T03:07:10.296Z,97739.13
2023-03-22T03:09:41.335Z,97743.44
2023-03-22T03:12:15.955Z,97736.94
2023-03-22T03:14:43.971Z,97736.69
2023-03-22T03:17:23.589Z,97735.06
2023-03-22T03:20:08.382Z,97741.50
2023-03-22T03:22:51.106Z,97739.28
2023-03-22T03:25:25.573Z,97744.09
2023-03-22T03:28:03.653Z,97746.16
2023-03-22T03:30:38.981Z,97751.31
2023-03-22T03:33:10.808Z,97746.78
2023-03-22T03:35:44.567Z,97750.16
2023-03-22T03:38:17.524Z,97760.53
2023-03-22T03:40:49.350Z,97754.59
2023-03-22T03:43:20.070Z,97754.59
2023-03-22T03:45:48.901Z,97746.75
2023-03-22T03:48:21.403Z,97747.00
2023-03-22T03:50:53.556Z,97750.97
2023-03-22T03:53:21.473Z,97755.50
2023-03-22T03:55:49.796Z,97756.81
2023-03-22T03:58:19.412Z,97750.78
2023-03-22T04:00:48.656Z,97753.47
2023-03-22T04:03:16.682Z,97757.19
2023-03-22T04:05:45.259Z,97759.06
2023-03-22T04:08:13.347Z,97754.75
2023-03-22T04:10:42.141Z,97761.50
2023-03-22T04:13:10.364Z,97756.63
2023-03-22T04:15:39.751Z,97762.22
2023-03-22T04:18:09.754Z,97752.06
2023-03-22T04:20:39.316Z,97753.28
2023-03-22T04:23:07.715Z,97749.44
2023-03-22T04:25:37.917Z,97755.13
2023-03-22T04:28:07.535Z,97756.19
2023-03-22T04:30:36.169Z,97756.91
2023-03-22T04:33:07.963Z,97750.16
2023-03-22T04:35:36.919Z,97751.53
2023-03-22T04:38:04.863Z,97752.50
2023-03-22T04:40:36.640Z,97749.72
2023-03-22T04:43:04.900Z,97745.91
2023-03-22T04:45:35.967Z,97736.22
2023-03-22T04:48:07.876Z,97736.00
2023-03-22T04:50:35.783Z,97741.94
2023-03-22T04:53:03.770Z,97743.56
2023-03-22T04:55:31.632Z,97736.91
2023-03-22T04:57:59.823Z,97742.84
2023-03-22T05:00:30.501Z,97730.81
2023-03-22T05:02:58.922Z,97722.66
2023-03-22T05:05:28.593Z,97722.75
2023-03-22T05:07:56.913Z,97722.50
2023-03-22T05:10:24.794Z,97725.03
2023-03-22T05:12:53.054Z,97712.94
2023-03-22T05:15:20.925Z,97720.97
2023-03-22T05:17:49.284Z,97709.66
2023-03-22T05:20:17.249Z,97715.59
2023-03-22T05:22:50.520Z,97711.63
2023-03-22T05:25:18.472Z,97708.22
2023-03-22T05:27:46.541Z,97698.06
2023-03-22T05:30:15.637Z,97693.84
2023-03-22T05:32:44.155Z,97702.22
2023-03-22T05:35:12.285Z,97700.91
2023-03-22T05:37:40.778Z,97700.41
2023-03-22T05:40:11.099Z,97706.69
2023-03-22T05:42:39.098Z,97708.06
2023-03-22T05:45:08.053Z,97703.78
2023-03-22T05:47:36.196Z,97708.34
2023-03-22T05:50:04.202Z,97705.16
2023-03-22T05:52:32.110Z,97711.03
2023-03-22T05:55:00.784Z,97705.00
2023-03-22T05:57:30.527Z,97716.22
2023-03-22T05:59:59.054Z,97715.41
2023-03-22T06:02:27.174Z,97703.63
2023-03-22T06:04:55.145Z,97707.94
2023-03-22T06:07:23.356Z,97712.25
2023-03-22T06:09:51.265Z,97706.88
2023-03-22T06:12:22.698Z,97715.50
2023-03-22T06:14:52.175Z,97715.25
2023-03-22T06:17:20.268Z,97716.22
2023-03-22T06:19:48.600Z,97714.28
2023-03-22T06:22:16.811Z,97716.47
2023-03-22T06:24:45.612Z,97720.19
2023-03-22T06:27:14.248Z,97727.34
2023-03-22T06:29:42.281Z,97730.44
2023-03-22T06:32:12.147Z,97737.91
2023-03-22T06:34:40.237Z,97731.50
2023-03-22T06:37:08.584Z,97734.97
2023-03-22T06:39:36.467Z,97739.03
2023-03-22T06:42:04.795Z,97745.78
2023-03-22T06:44:32.720Z,97735.59
2023-03-22T06:47:00.737Z,97754.69
2023-03-22T06:49:31.510Z,97753.41
2023-03-22T06:51:59.449Z,97752.16
2023-03-22T06:54:27.807Z,97752.81
2023-03-22T06:56:55.734Z,97758.81
2023-03-22T06:59:24.044Z,97742.28
2023-03-22T07:01:52.319Z,97744.28
2023-03-22T07:04:20.511Z,97747.91
2023-03-22T07:06:50.053Z,97744.28
2023-03-22T07:09:18.354Z,97743.63
2023-03-22T07:11:46.351Z,97742.72
2023-03-22T07:14:14.432Z,97747.56
2023-03-22T07:16:42.398Z,97745.66
2023-03-22T07:19:10.509Z,97738.84
2023-03-22T07:21:38.773Z,97748.19
2023-03-22T07:24:09.172Z,97748.59
2023-03-22T07:26:39.109Z,97739.53
2023-03-22T07:29:07.460Z,97744.25
2023-03-22T07:31:36.758Z,97736.25
2023-03-22T07:34:05.299Z,97739.53
2023-03-22T07:36:33.777Z,97734.44
2023-03-22T07:39:01.733Z,97735.56
2023-03-22T07:41:40.314Z,97737.72
2023-03-22T07:44:26.128Z,97739.63
2023-03-22T07:46:54.032Z,97738.25
2023-03-22T07:49:22.202Z,97739.59
2023-03-22T07:51:50.137Z,97745.25
2023-03-22T07:54:32.446Z,97743.63
2023-03-22T07:57:03.087Z,97741.91
2023-03-22T07:59:31.278Z,97741.88
2023-03-22T08:01:59.286Z,97740.19
2023-03-22T08:04:27.867Z,97735.81
2023-03-22T08:06:58.626Z,97745.19
2023-03-22T08:09:27.285Z,97747.88
2023-03-22T08:11:55.575Z,97746.44
2023-03-22T08:14:35.664Z,97742.31
2023-03-22T08:17:04.965Z,97749.25
2023-03-22T08:19:33.783Z,97757.06
2023-03-22T08:22:02.045Z,97752.88
2023-03-22T08:24:30.295Z,97756.34
2023-03-22T08:26:58.337Z,97746.72
2023-03-22T08:29:27.772Z,97749.09
2023-03-22T08:31:56.131Z,97752.81
2023-03-22T08:34:24.419Z,97752.66
2023-03-22T08:36:52.492Z,97752.28
2023-03-22T08:39:21.478Z,97743.84
2023-03-22T08:41:49.480Z,97741.78
2023-03-22T08:44:17.712Z,97744.41
2023-03-22T08:46:47.315Z,97747.31
2023-03-22T08:49:16.756Z,97739.13
2023-03-22T08:51:45.135Z,97732.53
2023-03-22T08:54:13.681Z,97732.53
2023-03-22T08:56:41.853Z,97730.50
2023-03-22T08:59:10.911Z,97728.25
2023-03-22T09:01:39.044Z,97728.97
2023-03-22T09:04:10.726Z,97729.94
2023-03-22T09:06:43.129Z,97725.41
2023-03-22T09:09:11.132Z,97729.75
2023-03-22T09:11:41.302Z,97725.97
2023-03-22T09:14:09.732Z,97719.88
2023-03-22T09:16:37.981Z,97713.97
2023-03-22T09:19:06.654Z,97713.69
2023-03-22T09:21:36.530Z,97709.72
2023-03-22T09:24:04.503Z,97706.72
2023-03-22T09:26:32.780Z,97700.06
2023-03-22T09:29:01.097Z,97713.00
2023-03-22T09:31:29.267Z,97708.78
2023-03-22T09:33:57.562Z,97703.66
2023-03-22T09:36:25.657Z,97701.03
2023-03-22T09:38:54.972Z,97700.53
2023-03-22T09:41:26.427Z,97707.50
2023-03-22T09:43:58.294Z,97695.19
2023-03-22T09:46:32.586Z,97696.72
2023-03-22T09:49:03.012Z,97693.69
2023-03-22T09:51:39.863Z,97695.41
2023-03-22T09:54:15.583Z,97697.84
2023-03-22T09:56:46.051Z,97684.63
2023-03-22T09:59:19.269Z,97687.97
2023-03-22T10:01:52.907Z,97673.44
2023-03-22T10:04:43.498Z,97680.13
2023-03-22T10:07:22.335Z,97670.41
2023-03-22T10:10:00.658Z,97666.19
2023-03-22T10:12:32.853Z,97659.78
2023-03-22T10:15:06.869Z,97656.88
2023-03-22T10:17:37.578Z,97651.06
2023-03-22T10:20:09.685Z,97646.50
2023-03-22T10:22:41.948Z,97646.16
2023-03-22T10:25:18.315Z,97647.34
2023-03-22T10:27:49.892Z,97645.91
2023-03-22T10:30:22.047Z,97632.59
2023-03-22T10:32:58.379Z,97628.94
2023-03-22T10:35:27.116Z,97624.53
2023-03-22T10:37:57.262Z,97627.97
2023-03-22T10:40:29.863Z,97625.44
2023-03-22T10:43:02.221Z,97628.66
2023-03-22T10:45:33.069Z,97623.72
2023-03-22T10:48:05.361Z,97627.06
2023-03-22T10:50:36.648Z,97629.72
2023-03-22T10:53:12.866Z,97629.38
2023-03-22T10:55:43.619Z,97624.66
2023-03-22T10:58:16.931Z,97621.28
2023-03-22T11:00:47.190Z,97612.84
2023-03-22T11:03:28.762Z,97622.41
2023-03-22T11:06:01.969Z,97616.53
2023-03-22T11:08:30.028Z,97600.34
2023-03-22T11:11:00.371Z,97605.97
2023-03-22T11:13:29.498Z,97612.09
2023-03-22T11:16:02.907Z,97616.47
2023-03-22T11:18:32.946Z,97608.78
2023-03-22T11:21:05.932Z,97605.72
2023-03-22T11:23:35.648Z,97613.13
2023-03-22T11:26:10.223Z,97617.84
2023-03-22T11:28:48.709Z,97608.31
2023-03-22T11:31:18.687Z,97606.22
2023-03-22T11:33:56.800Z,97601.41
2023-03-22T11:36:25.452Z,97600.97
2023-03-22T11:38:59.156Z,97591.84
2023-03-22T11:41:31.221Z,97594.31
2023-03-22T11:44:03.102Z,97596.19
2023-03-22T11:46:32.371Z,97585.41
2023-03-22T11:49:04.281Z,97583.34
2023-03-22T11:51:36.140Z,97580.94
2023-03-22T11:54:09.195Z,97578.69
2023-03-22T11:56:44.250Z,97584.38
2023-03-22T11:59:16.676Z,97577.31
2023-03-22T12:01:52.224Z,97568.00
2023-03-22T12:04:25.636Z,97553.03
2023-03-22T12:06:56.634Z,97559.16
2023-03-22T12:09:30.110Z,97558.19
2023-03-22T12:12:03.115Z,97541.97
2023-03-22T12:14:36.051Z,97548.88
2023-03-22T12:17:09.104Z,97536.28
2023-03-22T12:19:51.218Z,97536.25
2023-03-22T12:22:22.983Z,97534.63
2023-03-22T12:24:50.964Z,97530.63
2023-03-22T12:27:24.255Z,97523.06
2023-03-22T12:29:58.322Z,97520.56
2023-03-22T12:32:29.947Z,97524.69
2023-03-22T12:35:14.108Z,97539.97
2023-03-22T12:37:48.852Z,97533.22
2023-03-22T12:40:24.029Z,97527.91
2023-03-22T12:43:00.674Z,97527.75
2023-03-22T12:45:33.356Z,97518.94
2023-03-22T12:48:07.618Z,97531.34
2023-03-22T12:50:40.485Z,97523.63
2023-03-22T12:53:12.776Z,97522.03
2023-03-22T12:55:42.787Z,97524.75
2023-03-22T12:58:22.746Z,97526.03
2023-03-22T13:00:56.236Z,97511.03
2023-03-22T13:03:28.925Z,97520.03
2023-03-22T13:06:06.507Z,97518.59
2023-03-22T13:09:16.153Z,97520.06
2023-03-22T13:11:46.371Z,97522.34
2023-03-22T13:14:57.711Z,97508.69
2023-03-22T13:17:45.164Z,97500.81
2023-03-22T13:20:31.614Z,97501.63
2023-03-22T13:23:06.291Z,97502.75
2023-03-22T13:25:38.459Z,97496.66
2023-03-22T13:28:24.727Z,97489.09
2023-03-22T13:30:55.930Z,97486.84
2023-03-22T13:33:28.243Z,97482.16
2023-03-22T13:35:59.094Z,97487.25
2023-03-22T13:38:29.262Z,97473.91
2023-03-22T13:41:05.988Z,97481.19
2023-03-22T13:43:36.883Z,97469.19
2023-03-22T13:46:30.294Z,97470.47
2023-03-22T13:49:18.255Z,97467.41
2023-03-22T13:51:46.686Z,97463.72
2023-03-22T13:54:24.042Z,97456.94
2023-03-22T13:57:00.823Z,97460.06
2023-03-22T13:59:33.988Z,97458.44
2023-03-22T14:02:18.504Z,97455.38
2023-03-22T14:04:50.235Z,97450.03
2023-03-22T14:07:25.209Z,97443.25
2023-03-22T14:09:57.169Z,97451.13
2023-03-22T14:12:32.406Z,97445.59
2023-03-22T14:15:05.171Z,97435.16
2023-03-22T14:17:43.131Z,97430.97
2023-03-22T14:20:16.396Z,97431.72
